EJU926B LFQQ-LFBD
Flight info
| Callsign | EJU926B |
|---|---|
| Flight time | 1h 7m |
| Altitude | 29000 |
| Route | VERMA T372 LESDO DCT KOVIN DCT DUCRA UM728 RESMI UN857 DISAK DCT DIRMO DCT ARTAX DCT BEBIX DCT LMG |
| Aircraft | A320/M-SDE2E3FGHIJ1RWXYZ/LB1 |
Departure
| Time | 2026-04-15 10:52 |
|---|---|
| Airport | Lille Airport (LFQQ) |
Arrival
| Time | 2026-04-15 11:59 |
|---|---|
| Airport | Bordeaux–Mérignac Airport (LFBD) |
| Time | Latitude | Longitude | Altitude | Speed | Heading |
|---|---|---|---|---|---|
| 2026-04-15 10:14 | 50.57105 | 3.10612 | 179 ft | 0 kts | 347° |
| 2026-04-15 10:30 | 50.57104 | 3.10612 | 152 ft | 0 kts | 347° |
| 2026-04-15 10:43 | 50.57088 | 3.10618 | 151 ft | 4 kts | 351° |
| 2026-04-15 10:43 | 50.57061 | 3.10622 | 151 ft | 4 kts | 1° |
| 2026-04-15 10:43 | 50.57036 | 3.10616 | 151 ft | 4 kts | 30° |
| 2026-04-15 10:44 | 50.57023 | 3.10596 | 151 ft | 1 kts | 77° |
| 2026-04-15 10:44 | 50.57022 | 3.10590 | 151 ft | 0 kts | 77° |
| 2026-04-15 10:46 | 50.57026 | 3.10616 | 151 ft | 4 kts | 77° |
| 2026-04-15 10:46 | 50.57019 | 3.10670 | 151 ft | 6 kts | 123° |
| 2026-04-15 10:46 | 50.56976 | 3.10707 | 151 ft | 9 kts | 168° |
| 2026-04-15 10:47 | 50.56910 | 3.10729 | 151 ft | 11 kts | 168° |
| 2026-04-15 10:47 | 50.56846 | 3.10795 | 151 ft | 12 kts | 107° |
| 2026-04-15 10:47 | 50.56860 | 3.10928 | 151 ft | 12 kts | 77° |
| 2026-04-15 10:47 | 50.56877 | 3.11046 | 151 ft | 10 kts | 77° |
| 2026-04-15 10:48 | 50.56892 | 3.11150 | 151 ft | 9 kts | 78° |
| 2026-04-15 10:48 | 50.56904 | 3.11242 | 151 ft | 8 kts | 78° |
| 2026-04-15 10:48 | 50.56915 | 3.11322 | 151 ft | 7 kts | 76° |
| 2026-04-15 10:48 | 50.56926 | 3.11394 | 151 ft | 8 kts | 77° |
| 2026-04-15 10:49 | 50.56939 | 3.11484 | 151 ft | 8 kts | 77° |
| 2026-04-15 10:49 | 50.56943 | 3.11560 | 151 ft | 6 kts | 102° |
| 2026-04-15 10:49 | 50.56922 | 3.11592 | 151 ft | 4 kts | 156° |
| 2026-04-15 10:49 | 50.56910 | 3.11596 | 152 ft | 0 kts | 169° |
| 2026-04-15 10:50 | 50.56901 | 3.11599 | 152 ft | 4 kts | 169° |
| 2026-04-15 10:50 | 50.56862 | 3.11610 | 152 ft | 7 kts | 168° |
| 2026-04-15 10:51 | 50.56810 | 3.11628 | 153 ft | 8 kts | 167° |
| 2026-04-15 10:51 | 50.56763 | 3.11612 | 154 ft | 7 kts | 226° |
| 2026-04-15 10:51 | 50.56745 | 3.11513 | 154 ft | 17 kts | 258° |
| 2026-04-15 10:51 | 50.56665 | 3.10946 | 150 ft | 91 kts | 257° |
| 2026-04-15 10:52 | 50.56481 | 3.09657 | 154 ft | 148 kts | 258° |
| 2026-04-15 10:52 | 50.56261 | 3.07984 | 681 ft | 154 kts | 256° |
| 2026-04-15 10:52 | 50.56173 | 3.06281 | 1381 ft | 159 kts | 267° |
| 2026-04-15 10:52 | 50.56204 | 3.04478 | 2003 ft | 170 kts | 269° |
| 2026-04-15 10:53 | 50.56258 | 3.02562 | 2581 ft | 183 kts | 270° |
| 2026-04-15 10:53 | 50.56124 | 3.00495 | 3037 ft | 201 kts | 250° |
| 2026-04-15 10:53 | 50.55374 | 2.98552 | 3528 ft | 225 kts | 225° |
| 2026-04-15 10:53 | 50.54021 | 2.97071 | 4016 ft | 249 kts | 210° |
| 2026-04-15 10:54 | 50.52474 | 2.95723 | 4909 ft | 258 kts | 211° |
| 2026-04-15 10:54 | 50.50942 | 2.94226 | 5934 ft | 261 kts | 214° |
| 2026-04-15 10:54 | 50.49342 | 2.92850 | 6917 ft | 266 kts | 202° |
| 2026-04-15 10:54 | 50.47519 | 2.92192 | 7799 ft | 274 kts | 185° |
| 2026-04-15 10:55 | 50.45587 | 2.92341 | 8682 ft | 281 kts | 176° |
| 2026-04-15 10:55 | 50.43621 | 2.92650 | 9549 ft | 287 kts | 176° |
| 2026-04-15 10:55 | 50.41603 | 2.92960 | 10379 ft | 296 kts | 176° |
| 2026-04-15 10:55 | 50.39471 | 2.93279 | 10715 ft | 320 kts | 176° |
| 2026-04-15 10:56 | 50.37190 | 2.93614 | 11180 ft | 336 kts | 176° |
| 2026-04-15 10:56 | 50.34840 | 2.93963 | 11942 ft | 342 kts | 176° |
| 2026-04-15 10:56 | 50.32460 | 2.94317 | 12752 ft | 346 kts | 176° |
| 2026-04-15 10:56 | 50.30041 | 2.94672 | 13566 ft | 349 kts | 176° |
| 2026-04-15 10:57 | 50.27626 | 2.95254 | 14286 ft | 355 kts | 167° |
| 2026-04-15 10:57 | 50.23184 | 2.98672 | 15608 ft | 365 kts | 145° |
| 2026-04-15 10:57 | 50.21114 | 3.01001 | 16293 ft | 369 kts | 145° |
| 2026-04-15 10:58 | 50.19012 | 3.03354 | 16968 ft | 373 kts | 145° |
| 2026-04-15 10:58 | 50.16891 | 3.05715 | 17635 ft | 377 kts | 145° |
| 2026-04-15 10:58 | 50.14741 | 3.08096 | 18285 ft | 381 kts | 145° |
| 2026-04-15 10:58 | 50.12560 | 3.10509 | 18873 ft | 385 kts | 145° |
| 2026-04-15 10:59 | 50.10364 | 3.12936 | 19401 ft | 390 kts | 145° |
| 2026-04-15 10:59 | 50.08137 | 3.15389 | 19931 ft | 395 kts | 145° |
| 2026-04-15 10:59 | 50.05881 | 3.17869 | 20455 ft | 399 kts | 145° |
| 2026-04-15 10:59 | 50.03599 | 3.20379 | 20971 ft | 404 kts | 144° |
| 2026-04-15 11:00 | 50.01256 | 3.22824 | 21469 ft | 409 kts | 150° |
| 2026-04-15 11:00 | 49.98672 | 3.24727 | 21960 ft | 413 kts | 160° |
| 2026-04-15 11:00 | 49.95904 | 3.25974 | 22448 ft | 417 kts | 167° |
| 2026-04-15 11:00 | 49.93071 | 3.27069 | 22936 ft | 421 kts | 167° |
| 2026-04-15 11:01 | 49.90211 | 3.28175 | 23403 ft | 426 kts | 167° |
| 2026-04-15 11:01 | 49.87324 | 3.29288 | 23849 ft | 431 kts | 167° |
| 2026-04-15 11:01 | 49.84372 | 3.30204 | 24234 ft | 434 kts | 175° |
| 2026-04-15 11:01 | 49.81355 | 3.30364 | 24352 ft | 435 kts | 185° |
| 2026-04-15 11:02 | 49.78359 | 3.29738 | 24992 ft | 436 kts | 196° |
| 2026-04-15 11:02 | 49.75476 | 3.28326 | 25348 ft | 436 kts | 206° |
| 2026-04-15 11:02 | 49.72681 | 3.26462 | 25719 ft | 439 kts | 207° |
| 2026-04-15 11:02 | 49.69876 | 3.24589 | 26090 ft | 443 kts | 207° |
| 2026-04-15 11:03 | 49.67035 | 3.22704 | 26464 ft | 446 kts | 207° |
| 2026-04-15 11:03 | 49.64168 | 3.20821 | 26833 ft | 450 kts | 207° |
| 2026-04-15 11:03 | 49.61280 | 3.18932 | 27198 ft | 453 kts | 207° |
| 2026-04-15 11:03 | 49.58360 | 3.17030 | 27550 ft | 457 kts | 207° |
| 2026-04-15 11:04 | 49.55424 | 3.15123 | 27922 ft | 460 kts | 207° |
| 2026-04-15 11:04 | 49.52462 | 3.13199 | 28289 ft | 463 kts | 207° |
| 2026-04-15 11:04 | 49.49497 | 3.11230 | 28641 ft | 465 kts | 211° |
| 2026-04-15 11:04 | 49.46705 | 3.08771 | 28966 ft | 462 kts | 219° |
| 2026-04-15 11:05 | 49.44022 | 3.06014 | 29164 ft | 462 kts | 219° |
| 2026-04-15 11:05 | 49.41386 | 3.03334 | 29187 ft | 447 kts | 219° |
| 2026-04-15 11:05 | 49.36250 | 2.98140 | 29185 ft | 439 kts | 219° |
| 2026-04-15 11:06 | 49.32021 | 2.93855 | 29198 ft | 438 kts | 219° |
| 2026-04-15 11:06 | 49.26940 | 2.88713 | 29177 ft | 438 kts | 219° |
| 2026-04-15 11:07 | 49.21855 | 2.83584 | 29191 ft | 437 kts | 219° |
| 2026-04-15 11:07 | 49.16774 | 2.78479 | 29190 ft | 437 kts | 219° |
| 2026-04-15 11:08 | 49.11689 | 2.73382 | 29183 ft | 436 kts | 219° |
| 2026-04-15 11:08 | 49.06613 | 2.68315 | 29186 ft | 436 kts | 219° |
| 2026-04-15 11:09 | 49.01530 | 2.63259 | 29188 ft | 435 kts | 219° |
| 2026-04-15 11:09 | 48.96455 | 2.58204 | 29190 ft | 435 kts | 219° |
| 2026-04-15 11:10 | 48.91397 | 2.53175 | 29190 ft | 434 kts | 219° |
| 2026-04-15 11:10 | 48.86334 | 2.48159 | 29194 ft | 434 kts | 219° |
| 2026-04-15 11:11 | 48.81271 | 2.43155 | 29192 ft | 433 kts | 219° |
| 2026-04-15 11:11 | 48.76253 | 2.38215 | 29191 ft | 433 kts | 219° |
| 2026-04-15 11:12 | 48.71200 | 2.33250 | 29192 ft | 432 kts | 219° |
| 2026-04-15 11:12 | 48.66153 | 2.28299 | 29195 ft | 432 kts | 219° |
| 2026-04-15 11:13 | 48.61107 | 2.23362 | 29189 ft | 432 kts | 218° |
| 2026-04-15 11:13 | 48.55782 | 2.19063 | 29200 ft | 441 kts | 204° |
| 2026-04-15 11:14 | 48.49764 | 2.16925 | 29186 ft | 445 kts | 196° |
| 2026-04-15 11:14 | 48.43702 | 2.14989 | 29183 ft | 445 kts | 196° |
| 2026-04-15 11:15 | 48.37649 | 2.13025 | 29189 ft | 445 kts | 196° |
| 2026-04-15 11:15 | 48.31594 | 2.11076 | 29186 ft | 445 kts | 195° |
| 2026-04-15 11:16 | 48.25422 | 2.10625 | 29192 ft | 452 kts | 175° |
| 2026-04-15 11:16 | 48.19181 | 2.11956 | 29194 ft | 452 kts | 174° |
| 2026-04-15 11:17 | 48.12938 | 2.13198 | 29203 ft | 451 kts | 179° |
| 2026-04-15 11:17 | 48.06685 | 2.13580 | 29202 ft | 450 kts | 180° |
| 2026-04-15 11:18 | 48.00419 | 2.13957 | 29215 ft | 450 kts | 180° |
| 2026-04-15 11:18 | 47.94173 | 2.14334 | 29212 ft | 450 kts | 180° |
| 2026-04-15 11:19 | 47.87922 | 2.14693 | 29220 ft | 449 kts | 180° |
| 2026-04-15 11:19 | 47.81680 | 2.15052 | 29214 ft | 449 kts | 180° |
| 2026-04-15 11:20 | 47.75434 | 2.15424 | 29216 ft | 448 kts | 180° |
| 2026-04-15 11:20 | 47.69197 | 2.15789 | 29207 ft | 448 kts | 180° |
| 2026-04-15 11:21 | 47.62971 | 2.16148 | 29207 ft | 448 kts | 180° |
| 2026-04-15 11:21 | 47.56747 | 2.16507 | 29200 ft | 447 kts | 180° |
| 2026-04-15 11:22 | 47.50527 | 2.16869 | 29208 ft | 447 kts | 180° |
| 2026-04-15 11:22 | 47.44303 | 2.17223 | 29203 ft | 447 kts | 180° |
| 2026-04-15 11:23 | 47.38093 | 2.17578 | 29209 ft | 446 kts | 180° |
| 2026-04-15 11:23 | 47.31884 | 2.17932 | 29204 ft | 446 kts | 180° |
| 2026-04-15 11:24 | 47.25686 | 2.18291 | 29213 ft | 446 kts | 180° |
| 2026-04-15 11:24 | 47.19492 | 2.18643 | 29207 ft | 445 kts | 180° |
| 2026-04-15 11:25 | 47.13341 | 2.18991 | 29214 ft | 445 kts | 180° |
| 2026-04-15 11:25 | 47.07223 | 2.18291 | 29212 ft | 439 kts | 197° |
| 2026-04-15 11:26 | 47.01456 | 2.15510 | 29215 ft | 436 kts | 202° |
| 2026-04-15 11:26 | 46.95716 | 2.12641 | 29213 ft | 436 kts | 202° |
| 2026-04-15 11:27 | 46.92886 | 2.11248 | 29108 ft | 419 kts | 201° |
| 2026-04-15 11:27 | 46.90172 | 2.09921 | 29223 ft | 406 kts | 201° |
| 2026-04-15 11:27 | 46.84868 | 2.07306 | 29224 ft | 400 kts | 201° |
| 2026-04-15 11:28 | 46.79608 | 2.04696 | 29223 ft | 399 kts | 201° |
| 2026-04-15 11:28 | 46.74352 | 2.02091 | 29220 ft | 399 kts | 201° |
| 2026-04-15 11:29 | 46.69092 | 1.99495 | 29222 ft | 399 kts | 201° |
| 2026-04-15 11:29 | 46.63823 | 1.96907 | 29219 ft | 399 kts | 201° |
| 2026-04-15 11:30 | 46.58558 | 1.94338 | 29220 ft | 399 kts | 201° |
| 2026-04-15 11:30 | 46.53292 | 1.91759 | 29217 ft | 399 kts | 201° |
| 2026-04-15 11:31 | 46.48022 | 1.89181 | 29216 ft | 399 kts | 201° |
| 2026-04-15 11:31 | 46.42753 | 1.86616 | 29217 ft | 400 kts | 201° |
| 2026-04-15 11:32 | 46.37478 | 1.84057 | 29215 ft | 400 kts | 201° |
| 2026-04-15 11:32 | 46.32195 | 1.81495 | 29214 ft | 400 kts | 201° |
| 2026-04-15 11:33 | 46.26997 | 1.78809 | 29212 ft | 397 kts | 208° |
| 2026-04-15 11:33 | 46.22510 | 1.74307 | 29212 ft | 392 kts | 223° |
| 2026-04-15 11:34 | 46.18388 | 1.69137 | 29211 ft | 393 kts | 223° |
| 2026-04-15 11:34 | 46.14254 | 1.63982 | 29210 ft | 393 kts | 223° |
| 2026-04-15 11:35 | 46.10113 | 1.58835 | 29214 ft | 393 kts | 223° |
| 2026-04-15 11:35 | 46.05978 | 1.53691 | 29219 ft | 393 kts | 223° |
| 2026-04-15 11:36 | 46.01844 | 1.48540 | 29226 ft | 393 kts | 223° |
| 2026-04-15 11:36 | 45.97703 | 1.43408 | 29234 ft | 393 kts | 223° |
| 2026-04-15 11:37 | 45.94121 | 1.37581 | 29236 ft | 388 kts | 240° |
| 2026-04-15 11:37 | 45.91655 | 1.30705 | 29247 ft | 387 kts | 244° |
| 2026-04-15 11:38 | 45.89211 | 1.23823 | 29248 ft | 387 kts | 244° |
| 2026-04-15 11:38 | 45.86752 | 1.16951 | 29253 ft | 386 kts | 244° |
| 2026-04-15 11:39 | 45.84314 | 1.10140 | 29253 ft | 386 kts | 244° |
| 2026-04-15 11:39 | 45.81854 | 1.03305 | 29261 ft | 385 kts | 242° |
| 2026-04-15 11:40 | 45.78790 | 0.97003 | 29255 ft | 386 kts | 235° |
| 2026-04-15 11:40 | 45.75627 | 0.90788 | 29255 ft | 385 kts | 236° |
| 2026-04-15 11:41 | 45.72478 | 0.84602 | 28990 ft | 382 kts | 236° |
| 2026-04-15 11:41 | 45.70922 | 0.81551 | 28492 ft | 377 kts | 235° |
| 2026-04-15 11:41 | 45.69386 | 0.78549 | 28044 ft | 371 kts | 235° |
| 2026-04-15 11:42 | 45.67869 | 0.75595 | 27605 ft | 366 kts | 235° |
| 2026-04-15 11:42 | 45.66365 | 0.72670 | 27162 ft | 362 kts | 235° |
| 2026-04-15 11:42 | 45.64884 | 0.69790 | 26742 ft | 357 kts | 235° |
| 2026-04-15 11:42 | 45.63424 | 0.66944 | 26326 ft | 353 kts | 235° |
| 2026-04-15 11:43 | 45.61984 | 0.64131 | 25913 ft | 349 kts | 235° |
| 2026-04-15 11:43 | 45.60555 | 0.61341 | 25505 ft | 346 kts | 235° |
| 2026-04-15 11:43 | 45.59140 | 0.58583 | 25098 ft | 343 kts | 235° |
| 2026-04-15 11:43 | 45.57733 | 0.55845 | 24682 ft | 340 kts | 235° |
| 2026-04-15 11:44 | 45.56337 | 0.53134 | 24269 ft | 338 kts | 235° |
| 2026-04-15 11:44 | 45.54949 | 0.50441 | 23851 ft | 336 kts | 235° |
| 2026-04-15 11:44 | 45.53562 | 0.47753 | 23350 ft | 335 kts | 235° |
| 2026-04-15 11:44 | 45.52187 | 0.45092 | 22943 ft | 332 kts | 235° |
| 2026-04-15 11:45 | 45.50822 | 0.42452 | 22510 ft | 329 kts | 235° |
| 2026-04-15 11:45 | 45.49465 | 0.39836 | 22098 ft | 327 kts | 235° |
| 2026-04-15 11:45 | 45.48120 | 0.37244 | 21677 ft | 325 kts | 235° |
| 2026-04-15 11:45 | 45.46779 | 0.34659 | 21259 ft | 323 kts | 235° |
| 2026-04-15 11:46 | 45.45447 | 0.32092 | 20841 ft | 321 kts | 235° |
| 2026-04-15 11:46 | 45.44125 | 0.29543 | 20426 ft | 320 kts | 235° |
| 2026-04-15 11:46 | 45.42796 | 0.26990 | 19965 ft | 325 kts | 235° |
| 2026-04-15 11:46 | 45.41896 | 0.25261 | 19578 ft | 331 kts | 235° |
| 2026-04-15 11:47 | 45.40520 | 0.22617 | 19009 ft | 334 kts | 235° |
| 2026-04-15 11:47 | 45.39128 | 0.19954 | 18431 ft | 337 kts | 235° |
| 2026-04-15 11:47 | 45.37721 | 0.17267 | 17814 ft | 340 kts | 235° |
| 2026-04-15 11:47 | 45.36307 | 0.14568 | 17237 ft | 341 kts | 235° |
| 2026-04-15 11:48 | 45.34888 | 0.11855 | 16655 ft | 343 kts | 235° |
| 2026-04-15 11:48 | 45.33478 | 0.09119 | 16083 ft | 344 kts | 235° |
| 2026-04-15 11:48 | 45.32072 | 0.06369 | 15649 ft | 341 kts | 235° |
| 2026-04-15 11:48 | 45.30673 | 0.03629 | 15088 ft | 342 kts | 235° |
| 2026-04-15 11:49 | 45.29285 | 0.00918 | 14723 ft | 338 kts | 235° |
| 2026-04-15 11:49 | 45.27905 | -0.01773 | 14278 ft | 336 kts | 235° |
| 2026-04-15 11:49 | 45.26529 | -0.04450 | 13828 ft | 334 kts | 235° |
| 2026-04-15 11:49 | 45.25163 | -0.07106 | 13376 ft | 332 kts | 235° |
| 2026-04-15 11:50 | 45.23802 | -0.09749 | 12914 ft | 330 kts | 235° |
| 2026-04-15 11:50 | 45.22454 | -0.12363 | 12434 ft | 326 kts | 235° |
| 2026-04-15 11:50 | 45.21120 | -0.14945 | 11766 ft | 323 kts | 235° |
| 2026-04-15 11:50 | 45.19796 | -0.17503 | 11134 ft | 320 kts | 235° |
| 2026-04-15 11:51 | 45.18506 | -0.19992 | 10923 ft | 305 kts | 235° |
| 2026-04-15 11:51 | 45.17281 | -0.22350 | 10728 ft | 290 kts | 235° |
| 2026-04-15 11:51 | 45.15959 | -0.24474 | 10304 ft | 286 kts | 227° |
| 2026-04-15 11:51 | 45.14568 | -0.26473 | 9690 ft | 283 kts | 227° |
| 2026-04-15 11:52 | 45.13196 | -0.28444 | 8991 ft | 280 kts | 227° |
| 2026-04-15 11:52 | 45.11834 | -0.30407 | 8309 ft | 278 kts | 227° |
| 2026-04-15 11:52 | 45.10487 | -0.32350 | 7627 ft | 275 kts | 227° |
| 2026-04-15 11:52 | 45.09146 | -0.34280 | 6961 ft | 273 kts | 227° |
| 2026-04-15 11:53 | 45.07809 | -0.36169 | 6275 ft | 271 kts | 226° |
| 2026-04-15 11:53 | 45.06464 | -0.38043 | 5628 ft | 272 kts | 226° |
| 2026-04-15 11:53 | 45.05118 | -0.39910 | 5297 ft | 270 kts | 225° |
| 2026-04-15 11:53 | 45.03779 | -0.41764 | 4846 ft | 271 kts | 226° |
| 2026-04-15 11:54 | 45.02406 | -0.43658 | 4215 ft | 277 kts | 224° |
| 2026-04-15 11:54 | 45.01020 | -0.45489 | 3996 ft | 268 kts | 225° |
| 2026-04-15 11:54 | 44.99734 | -0.47301 | 3869 ft | 254 kts | 226° |
| 2026-04-15 11:54 | 44.98533 | -0.49040 | 3749 ft | 241 kts | 226° |
| 2026-04-15 11:55 | 44.97358 | -0.50738 | 3328 ft | 243 kts | 226° |
| 2026-04-15 11:55 | 44.96180 | -0.52434 | 3031 ft | 239 kts | 226° |
| 2026-04-15 11:55 | 44.95043 | -0.54070 | 2995 ft | 226 kts | 226° |
| 2026-04-15 11:55 | 44.93971 | -0.55610 | 2949 ft | 215 kts | 226° |
| 2026-04-15 11:56 | 44.92920 | -0.57122 | 2728 ft | 218 kts | 226° |
| 2026-04-15 11:56 | 44.91858 | -0.58648 | 2436 ft | 216 kts | 226° |
| 2026-04-15 11:56 | 44.90822 | -0.60136 | 2154 ft | 211 kts | 226° |
| 2026-04-15 11:56 | 44.89809 | -0.61589 | 1888 ft | 205 kts | 225° |
| 2026-04-15 11:57 | 44.88831 | -0.62992 | 1626 ft | 194 kts | 226° |
| 2026-04-15 11:57 | 44.87081 | -0.65498 | 1143 ft | 161 kts | 226° |
| 2026-04-15 11:57 | 44.86337 | -0.66564 | 903 ft | 145 kts | 226° |
| 2026-04-15 11:58 | 44.85659 | -0.67535 | 702 ft | 135 kts | 225° |
| 2026-04-15 11:58 | 44.85009 | -0.68466 | 536 ft | 131 kts | 225° |
| 2026-04-15 11:58 | 44.84386 | -0.69362 | 364 ft | 129 kts | 226° |
| 2026-04-15 11:58 | 44.83747 | -0.70275 | 188 ft | 129 kts | 226° |
| 2026-04-15 11:59 | 44.83186 | -0.71075 | 165 ft | 98 kts | 226° |
| 2026-04-15 11:59 | 44.82826 | -0.71590 | 167 ft | 53 kts | 225° |
| 2026-04-15 11:59 | 44.82645 | -0.71847 | 168 ft | 19 kts | 225° |
| 2026-04-15 11:59 | 44.82563 | -0.71928 | 167 ft | 14 kts | 181° |
| 2026-04-15 12:00 | 44.82488 | -0.71834 | 166 ft | 14 kts | 126° |
| 2026-04-15 12:00 | 44.82446 | -0.71724 | 166 ft | 12 kts | 96° |
| 2026-04-15 12:00 | 44.82485 | -0.71628 | 166 ft | 11 kts | 46° |
| 2026-04-15 12:00 | 44.82537 | -0.71552 | 166 ft | 11 kts | 46° |
| 2026-04-15 12:01 | 44.82589 | -0.71479 | 166 ft | 12 kts | 45° |
| 2026-04-15 12:01 | 44.82662 | -0.71375 | 166 ft | 17 kts | 45° |
| 2026-04-15 12:01 | 44.82740 | -0.71262 | 165 ft | 16 kts | 45° |
| 2026-04-15 12:01 | 44.82829 | -0.71137 | 164 ft | 18 kts | 44° |
| 2026-04-15 12:02 | 44.82911 | -0.71020 | 165 ft | 16 kts | 49° |
| 2026-04-15 12:02 | 44.82930 | -0.70883 | 165 ft | 14 kts | 109° |
| 2026-04-15 12:02 | 44.82904 | -0.70759 | 166 ft | 12 kts | 105° |
| 2026-04-15 12:02 | 44.82883 | -0.70650 | 166 ft | 11 kts | 106° |
| 2026-04-15 12:03 | 44.82864 | -0.70555 | 167 ft | 9 kts | 106° |
| 2026-04-15 12:03 | 44.82869 | -0.70477 | 167 ft | 8 kts | 50° |
| 2026-04-15 12:03 | 44.82890 | -0.70404 | 167 ft | 10 kts | 95° |
| 2026-04-15 12:03 | 44.82869 | -0.70295 | 167 ft | 12 kts | 106° |
| 2026-04-15 12:04 | 44.82847 | -0.70191 | 168 ft | 10 kts | 107° |
| 2026-04-15 12:04 | 44.82828 | -0.70098 | 168 ft | 9 kts | 106° |
| 2026-04-15 12:04 | 44.82811 | -0.70017 | 168 ft | 8 kts | 107° |
| 2026-04-15 12:04 | 44.82795 | -0.69945 | 168 ft | 7 kts | 107° |
| 2026-04-15 12:05 | 44.82783 | -0.69888 | 168 ft | 4 kts | 107° |
| 2026-04-15 12:05 | 44.82786 | -0.69862 | 168 ft | 4 kts | 58° |
| 2026-04-15 12:05 | 44.82811 | -0.69847 | 168 ft | 4 kts | 18° |
| 2026-04-15 12:05 | 44.82830 | -0.69839 | 168 ft | 2 kts | 16° |
| 2026-04-15 12:06 | 44.82838 | -0.69835 | 168 ft | 0 kts | 16° |